Terminal Aerodrome Forecast
Issued by NWS

Current Version | Previous Version | Text Only | Print | Product List | Glossary On
Versions: 1 2 3 4 5 6 7 8 9 10 11 12 13 14 15 16 17 18 19 20 21 22 23 24 25 26 27 28 29 30 31 32 33 34 35 36 37 38 39 40 41 42 43 44 45 46 47 48 49 50
000
FTUS43 KMKX 202040 AAA
TAFENW
TAF AMD
KENW 202040Z 2021/2118 36010G17KT P6SM BKN035
     FM210000 35006KT P6SM BKN035
     FM210600 35010KT P6SM BKN035
     FM211400 01012G18KT P6SM BKN030=

USA.gov is the U.S. government's official web portal to all federal, state and local government web resources and services.